CheckWX is a tool to help pilots better visualize weather data.  It is not intended as a substitute for an official pre-flight weather briefing.

18:41:51 UTC

CZMD METAR
Muskrat Dam Airport
Muskrat Dam, Canada
Current

42 mins ago

CZMD 221800Z AUTO 20005KT 180V240 9SM BKN023 M11/M15 A3016 RMK SLP247
Observed
Feb-22 @ 18:00 UTC
Wind
  • 200° at 5 KTS
Visibility
9 SM
Flight Rules
MVFR
Cloud Levels
  • Broken at 2,300' AGL
Temperature
-11°C / 12°F
Dewpoint
-15°C / 5°F
Humidity
73%
Altimeter
30.16" Hg
Pressure
1024.7 hPa
Previous

2 hours ago

CZMD 221700Z AUTO 19003KT 9SM FEW100 M12/M16 A3016 RMK SLP246
Observed
Feb-22 @ 17:00 UTC
Wind
  • 190° at 3 KTS
Visibility
9 SM
Flight Rules
VFR
Cloud Levels
  • Few at 10,000' AGL
Temperature
-12°C / 10°F
Dewpoint
-16°C / 3°F
Humidity
72%
Altimeter
30.16" Hg
Pressure
1024.6 hPa
Previous

3 hours ago

CZMD 221600Z AUTO 20002KT 9SM BKN050 BKN060 OVC069 M17/M19 A3016 RMK SLP248
Observed
Feb-22 @ 16:00 UTC
Wind
  • 200° at 2 KTS
Visibility
9 SM
Flight Rules
VFR
Cloud Levels
  • Broken at 5,000' AGL
  • Broken at 6,000' AGL
  • Overcast at 6,900' AGL
Temperature
-17°C / 1°F
Dewpoint
-19°C / -2°F
Humidity
85%
Altimeter
30.16" Hg
Pressure
1024.8 hPa